Terminal Aerodrome Forecast
Issued by NWS Tulsa, OK

Home | Current Version | Previous Version | Text Only | Print | Product List | Glossary On
Versions: 1 2 3 4 5 6 7 8 9 10 11 12 13 14 15 16 17
000
FTUS44 KTSA 202347
TAFTUL
TAF
KTUL 202347Z 2100/2124 36016G25KT P6SM OVC015
      TEMPO 2100/2103 4SM -FZRA BR OVC008
     FM210600 36016G25KT P6SM BKN040
     FM211800 03014G22KT P6SM OVC025 PROB30 2118/2124 4SM -FZRA BR
      OVC015=

USA.gov is the U.S. government's official web portal to all federal, state and local government web resources and services.